Time;durP1;ratioP1;P1;durP2;ratioP2;P2;SDS_P1;SDS_P2;PMS_P1;PMS_P2;Temp;Humidity;BMP_temperature;BMP_pressure;BME280_temperature;BME280_humidity;BME280_pressure;Samples;Min_cycle;Max_cycle;Signal;HPM_P1;HPM_P2
2023/12/10 00:00:09;;;;;;;6.37;1.90;;;10.10;99.90;;;;;;5046609;28;20032;-79
2023/12/10 00:02:34;;;;;;;7.55;1.70;;;10.10;99.90;;;;;;5047279;28;20025;-80
2023/12/10 00:05:00;;;;;;;8.57;1.73;;;10.10;99.90;;;;;;5047490;28;20037;-80
2023/12/10 00:07:26;;;;;;;7.30;1.47;;;10.20;99.90;;;;;;5047292;28;20032;-80
2023/12/10 00:09:51;;;;;;;7.90;1.93;;;10.10;99.90;;;;;;5038916;28;20045;-78
2023/12/10 00:12:17;;;;;;;7.87;1.57;;;10.10;99.90;;;;;;5031428;28;20024;-79
2023/12/10 00:14:43;;;;;;;9.07;1.40;;;10.10;99.90;;;;;;5046525;28;20104;-79
2023/12/10 00:17:09;;;;;;;7.88;1.67;;;10.00;99.90;;;;;;5047620;28;20036;-79
2023/12/10 00:19:34;;;;;;;9.43;2.10;;;10.00;99.90;;;;;;5047378;28;20444;-79
2023/12/10 00:22:00;;;;;;;8.87;1.53;;;10.00;99.90;;;;;;5047096;28;20039;-80
2023/12/10 00:24:26;;;;;;;9.27;1.73;;;10.00;99.90;;;;;;5061718;28;20052;-79
2023/12/10 00:26:52;;;;;;;4.93;1.33;;;10.00;99.90;;;;;;5046915;28;20702;-79
2023/12/10 00:29:18;;;;;;;9.23;1.70;;;9.90;99.90;;;;;;5046860;28;20485;-79
2023/12/10 00:31:44;;;;;;;6.30;1.52;;;9.90;99.90;;;;;;5046323;28;20041;-80
2023/12/10 00:34:10;;;;;;;8.68;2.17;;;9.90;99.90;;;;;;5042974;28;20034;-80
2023/12/10 00:36:36;;;;;;;9.30;2.38;;;9.80;99.90;;;;;;5026389;28;20048;-79
2023/12/10 00:39:04;;;;;;;8.00;1.85;;;9.80;99.90;;;;;;5033765;28;20532;-79
2023/12/10 00:41:30;;;;;;;9.57;1.70;;;9.70;99.90;;;;;;5045960;28;20116;-79
2023/12/10 00:43:56;;;;;;;5.95;1.85;;;9.70;99.90;;;;;;5046539;28;20108;-79
2023/12/10 00:46:22;;;;;;;16.47;2.03;;;9.70;99.90;;;;;;5051008;28;20454;-79
2023/12/10 00:48:47;;;;;;;5.90;1.50;;;9.80;99.90;;;;;;5066994;28;20025;-79
2023/12/10 00:51:20;;;;;;;13.33;1.70;;;9.80;99.90;;;;;;5044271;28;20037;-78
2023/12/10 00:53:47;;;;;;;5.78;1.80;;;9.70;99.90;;;;;;5028825;28;20029;-79
2023/12/10 00:56:13;;;;;;;8.68;1.65;;;9.60;99.90;;;;;;5047086;28;20485;-79
2023/12/10 00:58:38;;;;;;;9.30;1.80;;;9.60;99.90;;;;;;5047420;28;20032;-79
2023/12/10 01:01:04;;;;;;;7.03;1.97;;;9.60;99.90;;;;;;5047002;28;20500;-79
2023/12/10 01:03:30;;;;;;;8.18;2.78;;;9.60;99.90;;;;;;5046634;28;20036;-79
2023/12/10 01:05:56;;;;;;;8.43;2.72;;;9.60;99.90;;;;;;5039458;28;20038;-78
2023/12/10 01:08:21;;;;;;;9.33;2.40;;;9.70;99.90;;;;;;5030556;28;20033;-79
2023/12/10 01:10:48;;;;;;;7.27;2.50;;;9.60;99.90;;;;;;5046975;28;20029;-79
2023/12/10 01:13:13;;;;;;;10.05;2.60;;;9.50;99.90;;;;;;5049676;28;20544;-79
2023/12/10 01:15:39;;;;;;;13.10;2.57;;;9.50;99.90;;;;;;5051155;28;20047;-78
2023/12/10 01:18:05;;;;;;;7.43;2.33;;;9.40;99.90;;;;;;5050866;28;20455;-78
2023/12/10 01:20:32;;;;;;;10.37;2.43;;;9.50;99.90;;;;;;5050253;28;20111;-79
2023/12/10 01:22:59;;;;;;;12.00;3.47;;;9.40;99.90;;;;;;5054983;28;20396;-80
2023/12/10 01:25:25;;;;;;;9.95;2.45;;;9.40;99.90;;;;;;5070954;28;20029;-78
2023/12/10 01:27:54;;;;;;;17.10;3.70;;;9.30;99.90;;;;;;5064150;28;20063;-80
2023/12/10 01:30:24;;;;;;;13.80;3.22;;;9.30;99.90;;;;;;5051083;28;20041;-79
2023/12/10 01:32:55;;;;;;;11.65;2.97;;;9.30;99.90;;;;;;5049927;28;20032;-78
2023/12/10 01:35:21;;;;;;;11.95;3.08;;;9.30;99.90;;;;;;5050238;28;20017;-79
2023/12/10 01:37:47;;;;;;;9.07;3.03;;;9.20;99.90;;;;;;5049786;28;20477;-79
2023/12/10 01:40:13;;;;;;;20.10;3.23;;;9.20;99.90;;;;;;5050209;28;20044;-79
2023/12/10 01:42:41;;;;;;;13.40;3.13;;;9.10;99.90;;;;;;5050466;28;20360;-79
2023/12/10 01:45:07;;;;;;;10.32;2.78;;;9.10;99.90;;;;;;5049575;28;20033;-79
2023/12/10 01:47:35;;;;;;;9.80;2.75;;;9.00;99.90;;;;;;5050192;28;20017;-80
2023/12/10 01:50:06;;;;;;;16.90;3.58;;;9.00;99.90;;;;;;5049763;28;20033;-80
2023/12/10 01:52:34;;;;;;;13.13;3.40;;;8.90;99.90;;;;;;5050218;28;20481;-79
2023/12/10 01:55:01;;;;;;;16.40;3.53;;;9.00;99.90;;;;;;5049770;28;20033;-78
2023/12/10 01:57:27;;;;;;;16.25;4.13;;;9.00;99.90;;;;;;5049386;28;20017;-79
2023/12/10 01:59:53;;;;;;;15.02;5.03;;;9.00;99.90;;;;;;5049678;28;20176;-80
2023/12/10 02:02:21;;;;;;;9.27;4.07;;;9.10;99.90;;;;;;5049626;28;20119;-78
2023/12/10 02:04:47;;;;;;;14.63;3.25;;;9.10;99.90;;;;;;5049904;28;20378;-80
2023/12/10 02:07:12;;;;;;;13.65;3.33;;;9.10;99.90;;;;;;5050340;28;20544;-80
2023/12/10 02:09:38;;;;;;;12.93;3.50;;;9.10;99.90;;;;;;5049137;28;20041;-79
2023/12/10 02:12:04;;;;;;;12.27;3.47;;;9.10;99.90;;;;;;5048906;28;20037;-78
2023/12/10 02:14:30;;;;;;;7.60;3.00;;;9.10;99.90;;;;;;5036279;28;20056;-79
2023/12/10 02:16:55;;;;;;;15.57;2.90;;;9.10;99.90;;;;;;5029747;28;20494;-79
2023/12/10 02:19:21;;;;;;;10.93;2.70;;;9.00;99.90;;;;;;5029403;28;20033;-80
2023/12/10 02:21:50;;;;;;;13.43;3.57;;;9.00;99.90;;;;;;5029587;28;20033;-78
2023/12/10 02:24:32;;;;;;;14.82;3.03;;;8.90;99.90;;;;;;5059653;28;20510;-79
2023/12/10 02:26:58;;;;;;;10.40;2.78;;;8.80;99.90;;;;;;5068622;28;20147;-79
2023/12/10 02:29:23;;;;;;;9.67;2.57;;;8.80;99.90;;;;;;5068777;28;20545;-79
2023/12/10 02:31:49;;;;;;;7.77;2.90;;;8.80;99.90;;;;;;5067842;28;20032;-80
2023/12/10 02:34:15;;;;;;;15.43;3.50;;;8.70;99.90;;;;;;5069203;28;20443;-79
2023/12/10 02:36:41;;;;;;;11.85;2.60;;;8.60;99.90;;;;;;5049820;28;20025;-79
2023/12/10 02:39:07;;;;;;;9.25;2.72;;;8.60;99.90;;;;;;5048074;28;20386;-79
2023/12/10 02:41:33;;;;;;;17.27;3.60;;;8.60;99.90;;;;;;5048667;28;20017;-79
2023/12/10 02:43:58;;;;;;;8.40;3.17;;;8.50;99.90;;;;;;5035171;28;20029;-78
2023/12/10 02:46:24;;;;;;;10.73;3.67;;;8.50;99.90;;;;;;5028825;28;20405;-79
2023/12/10 02:48:49;;;;;;;16.27;3.63;;;8.60;99.90;;;;;;5046371;28;20091;-79
2023/12/10 02:51:15;;;;;;;13.47;2.80;;;8.50;99.90;;;;;;5048815;28;20432;-79
2023/12/10 02:53:41;;;;;;;11.03;2.70;;;8.40;99.90;;;;;;5049100;28;20029;-79
2023/12/10 02:56:07;;;;;;;13.93;2.53;;;8.40;99.90;;;;;;5065552;28;20033;-79
2023/12/10 02:58:33;;;;;;;10.30;2.90;;;8.40;99.90;;;;;;5065247;28;20439;-79
2023/12/10 03:00:59;;;;;;;15.23;3.13;;;8.40;99.90;;;;;;5046827;28;20025;-79
2023/12/10 03:03:24;;;;;;;10.40;3.03;;;8.50;99.90;;;;;;5048729;28;20280;-80
2023/12/10 03:05:50;;;;;;;11.33;2.50;;;8.50;99.90;;;;;;5048762;28;20489;-79
2023/12/10 03:08:16;;;;;;;12.83;4.33;;;8.50;99.90;;;;;;5048764;28;20037;-78
2023/12/10 03:10:41;;;;;;;8.27;2.33;;;8.50;99.90;;;;;;5048286;28;20047;-77
2023/12/10 03:13:07;;;;;;;15.80;2.63;;;8.40;99.90;;;;;;5048452;28;20057;-78
2023/12/10 03:15:32;;;;;;;17.70;3.33;;;8.50;99.90;;;;;;5048233;28;20028;-77
2023/12/10 03:17:58;;;;;;;9.50;2.83;;;8.40;99.90;;;;;;5048169;28;20420;-78
2023/12/10 03:20:24;;;;;;;9.13;2.83;;;8.40;99.90;;;;;;5047304;28;20120;-77
2023/12/10 03:22:49;;;;;;;12.30;2.93;;;8.30;99.90;;;;;;5048809;28;20043;-78
2023/12/10 03:25:15;;;;;;;15.80;3.37;;;8.30;99.90;;;;;;5047926;28;20501;-78
2023/12/10 03:27:41;;;;;;;17.87;2.83;;;8.30;99.90;;;;;;5063575;28;20123;-78
2023/12/10 03:30:07;;;;;;;13.70;3.10;;;8.30;99.90;;;;;;5048184;28;20059;-79
2023/12/10 03:32:33;;;;;;;8.30;2.85;;;8.30;99.90;;;;;;5048365;28;20493;-79
2023/12/10 03:34:58;;;;;;;16.60;3.00;;;8.30;99.90;;;;;;5047377;28;20044;-78
2023/12/10 03:37:24;;;;;;;6.87;2.10;;;8.20;99.90;;;;;;5046674;28;20025;-79
2023/12/10 03:39:49;;;;;;;12.53;3.23;;;8.30;99.90;;;;;;5046511;28;20817;-78
2023/12/10 03:42:15;;;;;;;8.37;3.50;;;8.30;99.90;;;;;;5043596;28;20020;-79
2023/12/10 03:44:41;;;;;;;17.57;3.50;;;8.30;99.90;;;;;;5029793;28;20023;-79
2023/12/10 03:47:06;;;;;;;12.93;3.40;;;8.30;99.90;;;;;;5036550;28;20017;-79
2023/12/10 03:49:32;;;;;;;12.87;3.40;;;8.20;99.90;;;;;;5047400;28;20029;-79
2023/12/10 03:51:58;;;;;;;17.77;4.70;;;8.20;99.90;;;;;;5046104;28;20043;-79
2023/12/10 03:54:24;;;;;;;16.63;3.40;;;8.20;99.90;;;;;;5047146;28;20362;-78
2023/12/10 03:56:49;;;;;;;17.95;3.30;;;8.10;99.90;;;;;;5047150;28;20034;-79
2023/12/10 03:59:15;;;;;;;9.87;2.73;;;8.10;99.90;;;;;;5047393;28;20131;-79
2023/12/10 04:01:44;;;;;;;5.90;2.55;;;8.10;99.90;;;;;;5044211;28;20128;-78
2023/12/10 04:04:11;;;;;;;15.88;3.50;;;8.10;99.90;;;;;;5038329;28;20291;-78
2023/12/10 04:06:40;;;;;;;9.77;2.60;;;8.10;99.90;;;;;;5045469;28;20025;-79
2023/12/10 04:09:09;;;;;;;10.75;2.50;;;8.20;99.90;;;;;;5046728;28;20496;-78
2023/12/10 04:11:36;;;;;;;9.13;2.58;;;8.20;99.90;;;;;;5047346;28;20033;-79
2023/12/10 04:14:02;;;;;;;13.73;3.05;;;8.20;99.90;;;;;;5046906;28;20068;-79
2023/12/10 04:16:29;;;;;;;10.57;2.55;;;8.20;99.90;;;;;;5047602;28;20445;-78
2023/12/10 04:18:55;;;;;;;9.88;2.90;;;8.20;99.90;;;;;;5047599;28;20029;-78
2023/12/10 04:21:22;;;;;;;14.77;2.13;;;8.20;99.90;;;;;;5047283;28;20064;-79
2023/12/10 04:23:48;;;;;;;11.30;2.53;;;8.20;99.90;;;;;;5058787;28;20025;-78
2023/12/10 04:26:15;;;;;;;13.80;2.85;;;8.10;99.90;;;;;;5067718;28;20035;-78
2023/12/10 04:28:40;;;;;;;;;;;8.10;99.90;;;;;;5058287;28;20064;-78
2023/12/10 04:31:06;;;;;;;11.32;3.53;;;8.10;99.90;;;;;;5047057;28;19955;-78
2023/12/10 04:33:33;;;;;;;17.52;2.83;;;8.00;99.90;;;;;;5047113;28;20029;-79
2023/12/10 04:35:59;;;;;;;13.32;3.08;;;8.00;99.90;;;;;;5047352;28;20040;-79
2023/12/10 04:38:24;;;;;;;9.45;2.20;;;7.90;99.90;;;;;;5046315;28;20025;-78
2023/12/10 04:40:50;;;;;;;12.33;3.63;;;7.90;99.90;;;;;;5045922;28;20051;-79
2023/12/10 04:43:16;;;;;;;11.47;3.33;;;7.90;99.90;;;;;;5047334;28;20504;-78
2023/12/10 04:45:41;;;;;;;13.53;2.67;;;7.90;99.90;;;;;;5048218;28;20544;-78
2023/12/10 04:48:07;;;;;;;17.57;4.60;;;7.90;99.90;;;;;;5050793;28;20485;-78
2023/12/10 04:50:33;;;;;;;15.83;3.90;;;7.90;99.90;;;;;;5050993;28;20435;-79
2023/12/10 04:52:58;;;;;;;17.63;3.93;;;7.80;99.90;;;;;;5051099;28;20264;-79
2023/12/10 04:55:24;;;;;;;13.33;3.47;;;7.80;99.90;;;;;;5051464;28;20029;-78
2023/12/10 04:57:50;;;;;;;15.27;4.27;;;7.70;99.90;;;;;;5051046;28;20060;-78
2023/12/10 05:00:16;;;;;;;20.23;3.53;;;7.60;99.90;;;;;;5060036;28;20059;-79
2023/12/10 05:02:41;;;;;;;17.92;3.63;;;7.60;99.90;;;;;;5071431;28;20056;-79
2023/12/10 05:05:08;;;;;;;16.63;3.93;;;7.50;99.90;;;;;;5070881;28;20067;-79
2023/12/10 05:07:34;;;;;;;15.25;3.40;;;7.50;99.90;;;;;;5057109;28;20029;-77
2023/12/10 05:10:00;;;;;;;10.60;3.40;;;7.40;99.90;;;;;;5049953;28;20039;-79
2023/12/10 05:12:26;;;;;;;10.98;3.47;;;7.40;99.90;;;;;;5050599;28;20025;-78
2023/12/10 05:14:52;;;;;;;14.60;3.77;;;7.30;99.90;;;;;;5050841;28;20068;-77
2023/12/10 05:17:17;;;;;;;21.43;3.33;;;7.30;99.90;;;;;;5051036;28;20067;-79
2023/12/10 05:19:43;;;;;;;13.10;3.00;;;7.20;99.90;;;;;;5051078;28;20040;-78
2023/12/10 05:22:08;;;;;;;12.03;4.23;;;7.20;99.90;;;;;;5050871;28;20447;-77
2023/12/10 05:24:34;;;;;;;13.17;2.80;;;7.20;99.90;;;;;;5068852;28;20040;-78
2023/12/10 05:27:00;;;;;;;20.47;3.63;;;7.20;99.90;;;;;;5070617;28;20142;-77
2023/12/10 05:29:25;;;;;;;17.40;3.40;;;7.20;99.90;;;;;;5070600;28;20051;-77
2023/12/10 05:31:51;;;;;;;15.10;4.60;;;7.20;99.90;;;;;;5070896;28;20412;-77
2023/12/10 05:34:17;;;;;;;18.93;4.27;;;7.20;99.90;;;;;;5070722;28;20030;-77
2023/12/10 05:36:42;;;;;;;17.37;4.37;;;7.30;99.90;;;;;;5062554;28;20037;-77
2023/12/10 05:39:08;;;;;;;14.90;4.13;;;7.30;99.90;;;;;;5050337;28;20040;-78
2023/12/10 05:41:34;;;;;;;10.85;3.45;;;7.30;99.90;;;;;;5049395;28;20044;-79
2023/12/10 05:43:59;;;;;;;11.03;3.50;;;7.30;99.90;;;;;;5049205;28;20444;-79
2023/12/10 05:46:25;;;;;;;13.73;3.37;;;7.30;99.90;;;;;;5049154;28;20759;-78
2023/12/10 05:48:51;;;;;;;20.47;3.40;;;7.30;99.90;;;;;;5048974;28;20067;-79
2023/12/10 05:51:16;;;;;;;12.67;3.30;;;7.30;99.90;;;;;;5047608;28;20124;-78
2023/12/10 05:53:42;;;;;;;13.38;3.30;;;7.30;99.90;;;;;;5048727;28;20024;-78
2023/12/10 05:56:08;;;;;;;12.20;3.97;;;7.30;99.90;;;;;;5048786;28;20037;-78
2023/12/10 05:58:34;;;;;;;10.98;3.72;;;7.30;99.90;;;;;;5048194;28;20125;-79
2023/12/10 06:01:00;;;;;;;13.48;3.35;;;7.30;99.90;;;;;;5048803;28;20496;-78
2023/12/10 06:03:27;;;;;;;22.23;3.80;;;7.20;99.90;;;;;;5047889;28;20025;-78
2023/12/10 06:05:52;;;;;;;17.33;3.97;;;7.20;99.90;;;;;;5047573;28;20393;-79
2023/12/10 06:08:18;;;;;;;13.70;3.63;;;7.20;99.90;;;;;;5048225;28;20021;-79
2023/12/10 06:10:44;;;;;;;12.13;3.27;;;7.20;99.90;;;;;;5048273;28;20044;-79
2023/12/10 06:13:10;;;;;;;18.87;4.37;;;7.10;99.90;;;;;;5048576;28;20025;-79
2023/12/10 06:15:36;;;;;;;14.13;3.38;;;7.20;99.90;;;;;;5048242;28;20471;-79
2023/12/10 06:18:02;;;;;;;9.95;3.50;;;7.10;99.90;;;;;;5046709;28;20037;-79
2023/12/10 06:20:27;;;;;;;13.60;3.95;;;7.20;99.90;;;;;;5048617;28;20120;-79
2023/12/10 06:22:53;;;;;;;13.20;2.90;;;7.20;99.90;;;;;;5048340;28;20036;-79
2023/12/10 06:25:18;;;;;;;13.77;3.27;;;7.20;99.90;;;;;;5048902;28;20029;-79
2023/12/10 06:27:44;;;;;;;19.07;4.53;;;7.30;99.90;;;;;;5049811;28;20487;-78
2023/12/10 06:30:10;;;;;;;14.00;3.27;;;7.30;99.90;;;;;;5048377;28;20048;-77
2023/12/10 06:32:36;;;;;;;10.45;3.17;;;7.30;99.90;;;;;;5047187;28;20049;-80
2023/12/10 06:35:02;;;;;;;15.00;3.73;;;7.30;99.90;;;;;;5047299;28;20082;-79
2023/12/10 06:37:27;;;;;;;19.67;3.35;;;7.20;99.90;;;;;;5047685;28;20125;-79
2023/12/10 06:39:54;;;;;;;22.33;3.80;;;7.10;99.90;;;;;;4996729;28;1160599;-79
2023/12/10 06:42:21;;;;;;;;;;;7.10;99.90;;;;;;5043789;28;20041;-76
2023/12/10 06:44:46;;;;;;;22.20;3.87;;;7.10;99.90;;;;;;5039163;28;20598;-78
2023/12/10 06:47:12;;;;;;;28.65;4.63;;;7.00;99.90;;;;;;5037113;28;20037;-78
2023/12/10 06:49:38;;;;;;;15.18;3.47;;;7.10;99.90;;;;;;5032069;28;20068;-78
2023/12/10 06:52:04;;;;;;;13.23;3.67;;;7.10;99.90;;;;;;5037607;28;20068;-80
2023/12/10 06:54:30;;;;;;;15.43;3.70;;;7.10;99.90;;;;;;5038498;28;20029;-80
2023/12/10 06:56:56;;;;;;;23.27;3.92;;;7.10;99.90;;;;;;5036443;28;20040;-78
2023/12/10 06:59:22;;;;;;;12.90;3.70;;;7.10;99.90;;;;;;5035137;28;20033;-79
2023/12/10 07:01:47;;;;;;;11.50;3.80;;;7.10;99.90;;;;;;5034993;28;20557;-80
2023/12/10 07:04:13;;;;;;;13.77;3.50;;;7.10;99.90;;;;;;5038711;28;20079;-80
2023/12/10 07:06:39;;;;;;;24.53;4.40;;;7.00;99.90;;;;;;5037618;28;20041;-80
2023/12/10 07:09:06;;;;;;;20.30;3.97;;;7.00;99.90;;;;;;5033054;28;20422;-80
2023/12/10 07:11:32;;;;;;;14.02;3.58;;;7.10;99.90;;;;;;5036415;28;20026;-80
2023/12/10 07:13:58;;;;;;;14.50;6.65;;;7.10;99.90;;;;;;5034631;28;20032;-78
2023/12/10 07:16:24;;;;;;;16.37;4.43;;;7.10;99.90;;;;;;5034335;28;20056;-77
2023/12/10 07:18:49;;;;;;;17.63;4.53;;;7.00;99.90;;;;;;5036529;28;20032;-79
2023/12/10 07:21:15;;;;;;;17.27;4.87;;;7.00;99.90;;;;;;5045585;28;20111;-76
2023/12/10 07:23:41;;;;;;;20.83;5.60;;;7.00;99.90;;;;;;5042773;28;20038;-76
2023/12/10 07:26:06;;;;;;;20.07;5.43;;;7.00;99.90;;;;;;5038582;28;20064;-76
2023/12/10 07:28:32;;;;;;;14.10;5.03;;;7.00;99.90;;;;;;5037535;28;20559;-76
2023/12/10 07:30:58;;;;;;;26.13;6.53;;;7.00;99.90;;;;;;5036389;28;20072;-76
2023/12/10 07:33:23;;;;;;;24.20;5.20;;;6.90;99.90;;;;;;5037305;28;20531;-76
2023/12/10 07:35:50;;;;;;;15.87;5.67;;;6.90;99.90;;;;;;5036650;28;20059;-76
2023/12/10 07:38:15;;;;;;;16.42;5.40;;;7.00;99.90;;;;;;5035859;28;20028;-78
2023/12/10 07:40:41;;;;;;;21.17;4.30;;;7.20;99.90;;;;;;5037374;28;20037;-78
2023/12/10 07:43:07;;;;;;;14.10;4.33;;;7.20;99.90;;;;;;5037059;28;20022;-79
2023/12/10 07:45:32;;;;;;;17.80;5.20;;;7.10;99.90;;;;;;5036244;28;20078;-78
2023/12/10 07:47:58;;;;;;;16.43;4.00;;;7.00;99.90;;;;;;5038386;28;20029;-76
2023/12/10 07:50:24;;;;;;;16.60;4.93;;;7.00;99.90;;;;;;5048445;28;20470;-78
2023/12/10 07:52:50;;;;;;;17.77;4.37;;;6.90;99.90;;;;;;5035838;28;20516;-78
2023/12/10 07:55:16;;;;;;;;;;;7.00;99.90;;;;;;5037269;28;20502;-77
2023/12/10 07:57:42;;;;;;;21.65;5.32;;;7.00;99.90;;;;;;5038019;28;19948;-79
2023/12/10 08:00:08;;;;;;;13.67;4.17;;;7.00;99.90;;;;;;5037720;28;20030;-79
2023/12/10 08:02:34;;;;;;;14.07;4.60;;;7.10;99.90;;;;;;5040549;28;20653;-79
2023/12/10 08:05:00;;;;;;;16.98;4.35;;;7.10;99.90;;;;;;5038233;28;20030;-78
2023/12/10 08:07:26;;;;;;;23.57;4.80;;;7.30;99.90;;;;;;5033293;28;20029;-78
2023/12/10 08:09:51;;;;;;;19.10;5.97;;;7.30;99.90;;;;;;5043157;28;20112;-78
2023/12/10 08:12:17;;;;;;;26.57;5.23;;;7.40;99.90;;;;;;5035639;28;20409;-79
2023/12/10 08:14:44;;;;;;;12.85;4.05;;;7.40;99.90;;;;;;5034797;28;20025;-77
2023/12/10 08:17:09;;;;;;;;;;;7.50;99.90;;;;;;5038584;28;20037;-76
2023/12/10 08:19:35;;;;;;;12.52;5.28;;;7.50;99.90;;;;;;5041375;28;19909;-80
2023/12/10 08:22:01;;;;;;;13.93;4.13;;;7.50;99.90;;;;;;5040481;28;20043;-81
2023/12/10 08:24:27;;;;;;;22.70;5.47;;;7.40;99.90;;;;;;5041100;28;20292;-77
2023/12/10 08:26:54;;;;;;;23.13;5.53;;;7.40;99.90;;;;;;5038524;28;20029;-77
2023/12/10 08:29:19;;;;;;;16.50;5.40;;;7.50;99.90;;;;;;5038717;28;20057;-76
2023/12/10 08:31:45;;;;;;;17.13;5.33;;;7.60;99.90;;;;;;5042171;28;20069;-80
2023/12/10 08:34:11;;;;;;;21.00;6.50;;;7.60;99.90;;;;;;5038977;28;20037;-80
2023/12/10 08:36:38;;;;;;;22.87;4.77;;;7.70;99.90;;;;;;5037913;28;20327;-79
2023/12/10 08:39:03;;;;;;;21.75;5.47;;;7.80;99.90;;;;;;5036498;28;20022;-80
2023/12/10 08:41:31;;;;;;;17.20;4.80;;;7.90;99.90;;;;;;5043280;28;20436;-77
2023/12/10 08:43:56;;;;;;;13.90;3.60;;;9.00;99.90;;;;;;5038011;28;20087;-79
2023/12/10 08:46:22;;;;;;;22.60;4.80;;;10.80;99.90;;;;;;5044092;28;20033;-78
2023/12/10 08:48:48;;;;;;;17.43;6.13;;;11.50;99.50;;;;;;5039421;28;20444;-76
2023/12/10 08:51:13;;;;;;;18.17;4.83;;;11.10;99.90;;;;;;5036261;28;20037;-80
2023/12/10 08:53:39;;;;;;;17.07;4.60;;;9.60;99.90;;;;;;5030261;28;20043;-77
2023/12/10 08:56:05;;;;;;;26.38;5.20;;;9.00;99.90;;;;;;5034211;28;20029;-77
2023/12/10 08:58:32;;;;;;;15.02;4.13;;;9.00;99.90;;;;;;5031367;28;20517;-79
2023/12/10 09:00:59;;;;;;;18.98;4.50;;;9.10;99.90;;;;;;5034748;28;20042;-83
2023/12/10 09:03:24;;;;;;;24.35;5.70;;;9.20;99.90;;;;;;5026857;28;20425;-79
2023/12/10 09:05:50;;;;;;;26.60;4.73;;;9.30;99.90;;;;;;5041557;28;20055;-75
2023/12/10 09:08:17;;;;;;;17.55;4.60;;;9.30;99.90;;;;;;5043142;28;20510;-77
2023/12/10 09:10:43;;;;;;;20.27;5.65;;;9.20;99.90;;;;;;5041819;28;20059;-75
2023/12/10 09:13:09;;;;;;;15.48;4.15;;;9.10;99.90;;;;;;5040714;28;20646;-77
2023/12/10 09:15:35;;;;;;;21.77;4.73;;;9.20;99.90;;;;;;5036049;28;20033;-75
2023/12/10 09:18:01;;;;;;;24.42;4.70;;;9.20;99.90;;;;;;5037433;28;20027;-76
2023/12/10 09:20:27;;;;;;;23.02;5.57;;;9.20;99.90;;;;;;5038147;28;20024;-72
2023/12/10 09:22:53;;;;;;;23.67;3.80;;;9.20;99.90;;;;;;5042798;28;20446;-80
2023/12/10 09:25:20;;;;;;;21.55;4.72;;;9.30;99.90;;;;;;5044536;28;20291;-80
2023/12/10 09:27:45;;;;;;;21.88;4.47;;;9.30;99.90;;;;;;5035948;28;20505;-82
2023/12/10 09:30:11;;;;;;;26.50;4.70;;;9.30;99.90;;;;;;5050225;28;20072;-82
2023/12/10 09:32:39;;;;;;;25.10;4.75;;;9.40;99.90;;;;;;5034240;28;20033;-81
2023/12/10 09:35:05;;;;;;;17.02;4.88;;;9.50;99.90;;;;;;5038546;28;20037;-81
2023/12/10 09:37:30;;;;;;;25.35;4.75;;;9.60;99.90;;;;;;5033803;28;20112;-82
2023/12/10 09:39:56;;;;;;;13.07;3.90;;;9.60;99.90;;;;;;5038801;28;20117;-81
2023/12/10 09:42:22;;;;;;;21.53;4.73;;;9.60;99.90;;;;;;5043936;28;20120;-82
2023/12/10 09:44:48;;;;;;;19.67;5.40;;;9.60;99.90;;;;;;5039503;28;20037;-81
2023/12/10 09:47:14;;;;;;;26.15;4.35;;;9.60;99.90;;;;;;5039537;28;20040;-81
2023/12/10 09:49:41;;;;;;;19.30;5.00;;;9.60;99.90;;;;;;5039598;28;20120;-80
2023/12/10 09:52:08;;;;;;;23.92;4.88;;;9.70;99.90;;;;;;5042473;28;20045;-81
2023/12/10 09:54:37;;;;;;;16.38;4.40;;;9.70;99.90;;;;;;5036481;28;20524;-81
2023/12/10 09:57:03;;;;;;;15.05;4.20;;;9.80;99.90;;;;;;5056312;28;20543;-80
2023/12/10 09:59:28;;;;;;;19.48;5.43;;;9.80;99.90;;;;;;5041231;28;20056;-80
2023/12/10 10:01:54;;;;;;;17.17;4.40;;;9.90;99.90;;;;;;5040109;28;20075;-81
2023/12/10 10:04:20;;;;;;;30.23;5.00;;;10.00;99.90;;;;;;5039903;28;20038;-81
2023/12/10 10:06:46;;;;;;;17.27;5.50;;;10.00;99.90;;;;;;5041249;28;20033;-81
2023/12/10 10:09:11;;;;;;;25.40;5.38;;;10.10;99.90;;;;;;5036659;28;20071;-81
2023/12/10 10:11:40;;;;;;;26.47;5.00;;;10.20;99.90;;;;;;5054319;28;20128;-81
2023/12/10 10:14:07;;;;;;;27.77;5.97;;;10.30;99.90;;;;;;5054167;28;20061;-81
2023/12/10 10:16:33;;;;;;;23.60;6.97;;;10.30;99.90;;;;;;5039707;28;20033;-81
2023/12/10 10:18:59;;;;;;;16.27;5.65;;;10.30;99.90;;;;;;5040379;28;20044;-81
2023/12/10 10:21:25;;;;;;;21.38;5.07;;;10.40;99.90;;;;;;5040535;28;20019;-81
2023/12/10 10:23:51;;;;;;;26.75;4.47;;;10.40;99.90;;;;;;5048180;28;20037;-81
2023/12/10 10:26:20;;;;;;;17.67;4.30;;;10.50;99.90;;;;;;5044189;28;20053;-80
2023/12/10 10:28:46;;;;;;;14.88;4.70;;;10.60;99.90;;;;;;5040475;28;20596;-80
2023/12/10 10:31:12;;;;;;;18.85;4.75;;;10.60;99.90;;;;;;5045213;28;20124;-80
2023/12/10 10:33:38;;;;;;;25.25;4.50;;;10.70;99.90;;;;;;5042918;28;20713;-81
2023/12/10 10:36:05;;;;;;;17.65;4.53;;;10.80;99.90;;;;;;5036518;28;20496;-81
2023/12/10 10:38:32;;;;;;;18.42;5.55;;;10.70;99.90;;;;;;5033637;28;20375;-80
2023/12/10 10:40:58;;;;;;;29.20;5.20;;;10.80;99.90;;;;;;5041960;28;20041;-81
2023/12/10 10:43:25;;;;;;;25.90;6.60;;;11.00;99.90;;;;;;5038544;28;20044;-82
2023/12/10 10:45:52;;;;;;;24.58;5.03;;;11.10;99.90;;;;;;5036554;28;20025;-80
2023/12/10 10:48:18;;;;;;;22.23;5.28;;;11.00;99.90;;;;;;5041137;28;20021;-78
2023/12/10 10:50:44;;;;;;;;;;;11.10;99.90;;;;;;5037594;28;20191;-81
2023/12/10 10:53:11;;;;;;;24.33;4.43;;;11.20;99.90;;;;;;5036843;28;20007;-80
2023/12/10 10:55:37;;;;;;;24.30;5.10;;;11.30;99.90;;;;;;5036284;28;20021;-81
2023/12/10 10:58:22;;;;;;;23.83;5.03;;;11.40;99.90;;;;;;5036492;28;20038;-79
2023/12/10 11:00:47;;;;;;;28.45;5.05;;;11.40;99.90;;;;;;5037165;28;20304;-81
2023/12/10 11:03:16;;;;;;;12.95;4.13;;;11.40;99.90;;;;;;5035900;28;20033;-80
2023/12/10 11:05:42;;;;;;;20.67;4.32;;;11.40;99.90;;;;;;5039816;28;20509;-77
2023/12/10 11:08:08;;;;;;;17.57;4.20;;;11.70;99.40;;;;;;5029628;28;20269;-78
2023/12/10 11:10:35;;;;;;;21.17;4.05;;;11.80;99.70;;;;;;5045648;28;20040;-83
2023/12/10 11:13:01;;;;;;;20.67;4.18;;;11.90;97.00;;;;;;5041900;28;20037;-75
2023/12/10 11:15:28;;;;;;;21.23;5.70;;;12.00;96.60;;;;;;5041447;28;20040;-74
2023/12/10 11:17:58;;;;;;;22.73;3.10;;;11.90;94.40;;;;;;5034586;28;20029;-79
2023/12/10 11:20:37;;;;;;;22.52;3.50;;;11.80;94.20;;;;;;5037488;28;20044;-76
2023/12/10 11:23:05;;;;;;;22.13;4.20;;;12.10;91.40;;;;;;5034537;28;20022;-76
2023/12/10 11:25:31;;;;;;;17.15;3.17;;;12.00;93.00;;;;;;5040584;28;20036;-76
2023/12/10 11:27:57;;;;;;;18.95;3.63;;;11.90;91.80;;;;;;5038343;28;20028;-77
2023/12/10 11:30:24;;;;;;;15.80;3.55;;;11.90;94.00;;;;;;5032653;28;20040;-80
2023/12/10 11:32:50;;;;;;;16.85;3.30;;;12.10;91.20;;;;;;5042643;28;20040;-77
2023/12/10 11:35:16;;;;;;;14.60;2.42;;;12.10;90.30;;;;;;5045284;28;20402;-77
2023/12/10 11:37:43;;;;;;;18.55;2.65;;;12.10;90.10;;;;;;5040364;28;20028;-79
2023/12/10 11:40:09;;;;;;;12.80;2.40;;;11.80;91.40;;;;;;5036422;28;20428;-82
2023/12/10 11:42:35;;;;;;;;;;;11.80;86.60;;;;;;5040549;28;20037;-82
2023/12/10 11:45:02;;;;;;;18.95;2.22;;;11.70;90.80;;;;;;5039851;28;19913;-83
2023/12/10 11:47:28;;;;;;;;;;;11.60;88.70;;;;;;5037732;28;20037;-80
2023/12/10 11:49:54;;;;;;;13.90;2.25;;;11.70;91.00;;;;;;5037034;28;19916;-78
2023/12/10 11:52:21;;;;;;;10.20;1.88;;;11.70;90.10;;;;;;5028149;28;20087;-77
2023/12/10 11:54:47;;;;;;;14.23;2.40;;;11.80;84.80;;;;;;5036747;28;20151;-75
2023/12/10 11:57:12;;;;;;;12.13;2.33;;;11.80;87.00;;;;;;5034484;28;20565;-74
2023/12/10 11:59:38;;;;;;;14.20;2.40;;;11.90;87.70;;;;;;5033027;28;20033;-73
2023/12/10 12:02:05;;;;;;;9.70;1.90;;;11.80;84.70;;;;;;5030582;28;20041;-73
2023/12/10 12:04:33;;;;;;;12.55;2.20;;;11.60;90.10;;;;;;5039210;28;20065;-73
2023/12/10 12:06:59;;;;;;;11.73;2.78;;;11.60;90.50;;;;;;5035722;28;20082;-76
2023/12/10 12:09:25;;;;;;;12.55;2.65;;;11.70;88.00;;;;;;5030299;28;20064;-73
2023/12/10 12:11:51;;;;;;;8.35;3.28;;;11.50;87.70;;;;;;5032835;28;20409;-72
2023/12/10 12:14:19;;;;;;;12.65;1.95;;;11.60;87.20;;;;;;5048517;28;20028;-74
2023/12/10 12:16:46;;;;;;;12.85;2.60;;;11.80;81.70;;;;;;5040953;28;20032;-73
2023/12/10 12:19:27;;;;;;;11.13;2.40;;;11.70;83.70;;;;;;5028439;28;20033;-74
2023/12/10 12:21:52;;;;;;;9.38;1.90;;;11.80;84.60;;;;;;5038510;28;20040;-75
2023/12/10 12:24:18;;;;;;;9.05;2.00;;;11.70;85.90;;;;;;5036820;28;20021;-77
2023/12/10 12:26:44;;;;;;;11.37;2.50;;;11.80;81.70;;;;;;5035024;28;20810;-78
2023/12/10 12:29:10;;;;;;;11.68;2.72;;;11.90;82.30;;;;;;5030421;28;20034;-76
2023/12/10 12:31:38;;;;;;;12.83;2.03;;;11.70;83.70;;;;;;5037284;28;20796;-75
2023/12/10 12:34:03;;;;;;;9.27;1.77;;;11.60;86.50;;;;;;5041709;28;20024;-74
2023/12/10 12:36:29;;;;;;;9.20;2.10;;;11.60;84.60;;;;;;5039684;28;20029;-73
2023/12/10 12:38:54;;;;;;;14.50;2.40;;;11.60;85.90;;;;;;5040139;28;20131;-76
2023/12/10 12:41:20;;;;;;;7.93;2.50;;;11.70;81.30;;;;;;5038623;28;20033;-75